NCAR-RAP Real-Time Weather Data

Output produced by METARs form (26 September 2017  09:14 UTC)
found at http://weather.rap.ucar.edu/surface/
 
KSYR 260854Z 00000KT 10SM FEW180 BKN260 18/17 A3001 RMK AO2 SLP156 T01780172 52001
KSYR 260754Z 00000KT 10SM FEW180 SCT260 18/18 A3001 RMK AO2 SLP156 T01780178
KSYR 260654Z 12003KT 10SM FEW180 SCT260 18/18 A3001 RMK AO2 SLP155 T01830178
KSYR 260554Z 00000KT 10SM FEW180 SCT260 19/19 A3001 RMK AO2 SLP155 T01890189 10239 20189 55001
KSYR 260454Z 12004KT 10SM FEW180 SCT260 20/19 A3000 RMK AO2 SLP154 T02000189 403220161
KSYR 260354Z 10003KT 10SM FEW180 SCT260 20/19 A3001 RMK AO2 SLP156 T02000194
KSYR 260254Z 00000KT 10SM FEW180 SCT260 21/21 A3001 RMK AO2 SLP157 T02110206 58002
KSYR 260154Z 00000KT 10SM FEW200 SCT250 22/21 A3001 RMK AO2 SLP158 T02170211
KSYR 260054Z 00000KT 10SM FEW200 SCT250 23/21 A3002 RMK AO2 SLP160 T02330211
KSYR 252354Z 34004KT 10SM FEW050 SCT180 BKN250 24/21 A3002 RMK AO2 SLP160 T02390211 10322 20239 53001
KSYR 252254Z 36004KT 10SM FEW045 SCT180 BKN250 26/21 A3002 RMK AO2 SLP159 T02560206
KSYR 252154Z 02005KT 10SM FEW180 SCT250 29/19 A3001 RMK AO2 SLP157 T02890194
KSYR 252054Z 03006KT 10SM FEW042 SCT220 31/18 A3002 RMK AO2 SLP158 T03110183 56015
KSYR 251954Z 02007KT 10SM FEW045 SCT200 32/19 A3003 RMK AO2 SLP161 T03220194
KSYR 251854Z 02006KT 10SM FEW040 SCT200 32/20 A3004 RMK AO2 SLP166 T03170200
KSYR 251754Z VRB03KT 10SM SCT200 30/19 A3006 RMK AO2 SLP173 T03000194 10300 20183 58014 CHINO NW $
KSYR 251654Z 12003KT 10SM SCT200 29/20 A3008 RMK AO2 SLP179 T02890200 CHINO NW $
KSYR 251554Z 00000KT 10SM BKN200 28/20 A3009 RMK AO2 SLP184 T02780200 CHINO NW $
KSYR 251454Z 00000KT 10SM BKN200 25/19 A3010 RMK AO2 SLP187 T02500194 58001 CHINO NW $
KSYR 251354Z 00000KT 10SM SCT200 23/18 A3011 RMK AO2 SLP192 T02280183 CHINO NW $
KSYR 251254Z COR 00000KT 10SM SCT200 20/18 A3011 RMK SLP188 T02000183
KSYR 251154Z 00000KT 7SM MIFG SCT200 18/18 A3010 RMK AO2 SLP189 T01830178 10194 20161 53009
KSYR 251054Z 09003KT 5SM BR CLR 17/17 A3009 RMK AO2 VIS 1 1/4 NW SLP185 T01670167
KSYR 250954Z 10003KT 8SM BCFG CLR 17/17 A3008 RMK AO2 SLP180 T01720172
KSYR 250854Z 09003KT 8SM BCFG CLR 18/17 A3008 RMK AO2 SLP178 T01780172 55003
KSYR 250754Z 11003KT 9SM CLR 18/18 A3008 RMK AO2 SLP178 T01830178
KSYR 250654Z 11003KT 9SM CLR 19/18 A3008 RMK AO2 SLP180 T01890178
KSYR 250554Z 12003KT 10SM CLR 19/18 A3009 RMK AO2 SLP181 T01890178 10244 20189 55001
KSYR 250454Z 12003KT 10SM CLR 20/19 A3008 RMK AO2 SLP180 T02000189 403170150
KSYR 250354Z 00000KT 9SM CLR 20/19 A3009 RMK AO2 SLP183 T02000189
KSYR 250254Z 00000KT 9SM CLR 21/19 A3009 RMK AO2 SLP183 T02060194 50003
KSYR 250154Z 00000KT 9SM CLR 22/19 A3009 RMK AO2 SLP184 T02220194
KSYR 250054Z 00000KT 10SM CLR 23/19 A3008 RMK AO2 SLP182 T02280194
KSYR 242354Z 32004KT 10SM CLR 23/19 A3008 RMK AO2 SLP181 T02330194 10317 20233 53005
KSYR 242254Z 31005KT 10SM CLR 26/19 A3007 RMK AO2 SLP177 T02610194
KSYR 242154Z 32008KT 10SM CLR 29/20 A3007 RMK AO2 SLP176 T02890200
KSYR 242054Z 29008KT 10SM CLR 31/19 A3006 RMK AO2 SLP174 T03060194 58010
KSYR 241954Z 29004KT 10SM FEW040 31/19 A3007 RMK AO2 SLP178 T03110194
KSYR 241854Z 34006KT 10SM CLR 31/20 A3008 RMK AO2 SLP181 T03110200
KSYR 241754Z 28003KT 10SM FEW140 31/20 A3009 RMK AO2 SLP184 T03060200 10306 20172 58016
KSYR 241654Z 29004KT 10SM FEW140 30/20 A3011 RMK AO2 SLP192 T03000200
KSYR 241554Z 31006KT 10SM FEW180 28/19 A3013 RMK AO2 SLP197 T02830194
KSYR 241454Z 30005KT 10SM CLR 27/19 A3014 RMK AO2 SLP201 T02670194 50001
KSYR 241354Z VRB04KT 10SM CLR 24/18 A3015 RMK AO2 SLP203 T02440183
KSYR 241254Z 00000KT 10SM CLR 21/18 A3014 RMK AO2 SLP202 T02060178
KSYR 241154Z 00000KT 10SM FEW060 17/16 A3014 RMK AO2 SLP201 T01670161 10178 20150 53007
KSYR 241054Z 00000KT 9SM BCFG FEW120 16/16 A3013 RMK AO2 SLP198 T01560156
KSYR 240954Z 00000KT 10SM CLR 17/16 A3012 RMK AO2 SLP193 T01670161
KSYR 240854Z 00000KT 10SM CLR 16/16 A3012 RMK AO2 SLP193 T01610161 53006
KSYR 240754Z 09003KT 10SM CLR 17/16 A3011 RMK AO2 SLP190 T01670161
KSYR 240654Z 00000KT 10SM CLR 17/16 A3010 RMK AO2 SLP187 T01720161
KSYR 240554Z 00000KT 10SM FEW250 18/16 A3010 RMK AO2 SLP186 T01780161 10211 20178 52002
KSYR 240454Z 00000KT 10SM FEW250 18/16 A3010 RMK AO2 SLP186 T01780161 402940122
KSYR 240354Z 13003KT 10SM FEW250 19/16 A3009 RMK AO2 SLP185 T01890161
KSYR 240254Z 12004KT 10SM FEW250 19/17 A3009 RMK AO2 SLP184 T01890167 53006
KSYR 240154Z 00000KT 10SM FEW250 19/16 A3008 RMK AO2 SLP182 T01940161
KSYR 240054Z 00000KT 10SM FEW250 21/17 A3007 RMK AO2 SLP179 T02060167
KSYR 232354Z 00000KT 10SM FEW250 21/16 A3007 RMK AO2 SLP178 T02110161 10294 20211 53004
KSYR 232254Z 33003KT 10SM FEW250 24/15 A3006 RMK AO2 SLP175 T02440150
KSYR 232154Z 30007KT 10SM FEW250 27/15 A3007 RMK AO2 SLP176 T02720150
KSYR 232054Z 29006KT 10SM FEW250 29/16 A3006 RMK AO2 SLP173 T02890161 56016
KSYR 231954Z 27006KT 10SM FEW250 29/16 A3007 RMK AO2 SLP176 T02940156
KSYR 231854Z VRB06KT 10SM SCT250 29/16 A3009 RMK AO2 SLP184 T02890156
KSYR 231754Z 33004KT 10SM SCT250 28/15 A3011 RMK AO2 SLP189 T02780150 10283 20150 56008
KSYR 231654Z 32006KT 10SM SCT250 27/14 A3011 RMK AO2 SLP191 T02670139
KSYR 231554Z VRB04KT 10SM SCT250 25/14 A3012 RMK AO2 SLP193 T02500139
KSYR 231454Z 21003KT 10SM SCT200 22/13 A3013 RMK AO2 SLP198 T02220133 50003
KSYR 231354Z 00000KT 10SM SCT200 19/15 A3014 RMK AO2 SLP200 T01940150
KSYR 231254Z 14004KT 10SM FEW200 17/15 A3013 RMK AO2 SLP198 T01670150
KSYR 231154Z 00000KT 10SM BCFG SCT250 15/14 A3012 RMK AO2 SLP196 T01500144 10150 20122 53017
KSYR 231054Z 11005KT 9SM BCFG FEW060 FEW250 13/13 A3009 RMK AO2 SLP183 T01280128
KSYR 230954Z 00000KT 10SM SCT006 13/13 A3008 RMK AO2 SLP182 T01330133
KSYR 230854Z 32003KT 10SM SCT006 14/14 A3007 RMK AO2 SLP177 T01390139 55003
KSYR 230754Z 00000KT 10SM SCT006 14/14 A3005 RMK AO2 SLP170 T01390139
KSYR 230654Z 00000KT 10SM SCT006 15/14 A3006 RMK AO2 SLP174 T01500144
KSYR 230554Z 00000KT 10SM CLR 15/15 A3008 RMK AO2 SLP181 T01500150 10206 20150 51001
KSYR 230454Z 23003KT 10SM CLR 16/15 A3008 RMK AO2 SLP180 T01610150 402780117
KSYR 230354Z 25003KT 10SM CLR 17/15 A3008 RMK AO2 SLP181 T01720150
KSYR 230254Z 00000KT 10SM FEW200 18/15 A3007 RMK AO2 SLP179 T01780150 51004
KSYR 230154Z 25005KT 10SM FEW200 SCT270 18/15 A3007 RMK AO2 SLP180 T01780150
KSYR 230054Z 26006KT 10SM FEW200 SCT260 18/15 A3007 RMK AO2 SLP180 T01830150
KSYR 222354Z 27006KT 10SM FEW180 SCT260 21/15 A3006 RMK AO2 SLP176 T02060150 10278 20200 53005
KSYR 222254Z 31006KT 10SM FEW200 SCT250 22/16 A3005 RMK AO2 SLP172 T02220156
KSYR 222154Z 31009KT 10SM FEW180 SCT200 SCT250 25/16 A3005 RMK AO2 SLP170 T02500156
KSYR 222054Z 31007KT 10SM SCT200 SCT250 27/13 A3005 RMK AO2 SLP169 SCT250 V BKN T02670133 56018
KSYR 221954Z VRB04KT 10SM BKN200 BKN250 27/13 A3006 RMK AO2 SLP174 T02670133
KSYR 221854Z 00000KT 10SM BKN200 26/12 A3008 RMK AO2 SLP181 T02610122
KSYR 221754Z 33004KT 10SM SCT200 25/16 A3010 RMK AO2 SLP187 T02500156 10256 20133 58013
KSYR 221654Z 33003KT 10SM FEW020 BKN200 24/16 A3011 RMK AO2 SLP191 T02390156
KSYR 221554Z 00000KT 10SM SCT020 BKN200 22/16 A3012 RMK AO2 SLP197 T02220156
KSYR 221511Z VRB03KT 7SM SCT006 SCT020 BKN200 20/17 A3013 RMK AO2 T02000172
KSYR 221454Z COR 00000KT 5SM BR BKN005 BKN020 OVC200 19/17 A3014 RMK AO2 SLP200 T01890172 50002
KSYR 221447Z 00000KT 3SM BR OVC005 18/17 A3014 RMK AO2 T01780167
KSYR 221431Z 00000KT 2 1/2SM BR OVC003 17/17 A3014 RMK AO2 T01720167
KSYR 221428Z 00000KT 1 1/2SM BR OVC003 17/17 A3014 RMK AO2 T01670167
KSYR 221354Z 00000KT 1/2SM R28/4500VP6000FT BR OVC002 16/16 A3014 RMK AO2 SFC VIS 1 1/4 SLP202 T01560156
KSYR 221254Z 00000KT 1/2SM R28/3000V5500FT FG BKN002 OVC200 14/14 A3013 RMK AO2 SLP199 T01440144
KSYR 221249Z 00000KT 1/4SM R28/3000V5500FT FG SCT002 BKN200 BKN250 14/14 A3013 RMK AO2 TWR VIS 1/2
KSYR 221222Z COR 00000KT 1SM BR R28/P6000FT SCT002 BKN200 BKN250 14/14 A3013 RMK AO2 SFC VIS 3 T01440144
KSYR 221215Z 00000KT 1SM R28/P6000FT MIFG FEW020 BKN200 BKN250 14/14 A3013 RMK AO2 SFC VIS 10 T01390139
KSYR 221154Z 00000KT 10SM MIFG FEW020 BKN200 BKN250 13/13 A3012 RMK AO2 SLP196 T01330133 10156 20117 53006
KSYR 221054Z 00000KT 8SM R28/1600VP6000FT MIFG BKN200 BKN250 12/12 A3011 RMK AO2 SLP192 T01220122 $
KSYR 220954Z 00000KT 5SM R28/1600VP6000FT BR SCT200 BKN250 13/13 A3010 RMK AO2 SLP190 T01330133 $
KSYR 220854Z 00000KT 5SM BR SCT200 BKN250 14/14 A3010 RMK AO2 SLP188 T01390139 53002 $
KSYR 220754Z 00000KT 7SM R28/1600V5000FT SCT200 BKN250 14/14 A3010 RMK AO2 SLP186 T01390139 $
KSYR 220654Z 00000KT 7SM SCT200 BKN250 15/15 A3010 RMK AO2 SLP186 T01500150 $
KSYR 220554Z 00000KT 10SM SCT200 BKN250 16/15 A3009 RMK AO2 SLP186 T01560150 10211 20144 58001 $